sensor_id;sensor_type;location;lat;lon;timestamp;temperature;humidity
6666;DHT22;3369;49.906;8.598;2022-10-16T00:01:30;15.30;99.90
6666;DHT22;3369;49.906;8.598;2022-10-16T00:03:57;15.30;99.90
6666;DHT22;3369;49.906;8.598;2022-10-16T00:06:23;15.40;99.90
6666;DHT22;3369;49.906;8.598;2022-10-16T00:08:49;15.40;99.90
6666;DHT22;3369;49.906;8.598;2022-10-16T00:11:16;15.30;99.90
6666;DHT22;3369;49.906;8.598;2022-10-16T00:13:43;15.30;99.90
6666;DHT22;3369;49.906;8.598;2022-10-16T00:16:09;15.30;99.90
6666;DHT22;3369;49.906;8.598;2022-10-16T00:18:34;15.40;99.90
6666;DHT22;3369;49.906;8.598;2022-10-16T00:21:02;15.30;99.90
6666;DHT22;3369;49.906;8.598;2022-10-16T00:23:28;15.40;99.90
6666;DHT22;3369;49.906;8.598;2022-10-16T00:25:58;15.30;99.90
6666;DHT22;3369;49.906;8.598;2022-10-16T00:28:24;15.40;99.90
6666;DHT22;3369;49.906;8.598;2022-10-16T00:30:50;15.30;99.90
6666;DHT22;3369;49.906;8.598;2022-10-16T00:33:16;15.30;99.90
6666;DHT22;3369;49.906;8.598;2022-10-16T00:35:41;15.30;99.90
6666;DHT22;3369;49.906;8.598;2022-10-16T00:38:07;15.30;99.90
6666;DHT22;3369;49.906;8.598;2022-10-16T00:40:33;15.30;99.90
6666;DHT22;3369;49.906;8.598;2022-10-16T00:42:58;15.30;99.90
6666;DHT22;3369;49.906;8.598;2022-10-16T00:45:24;15.30;99.90
6666;DHT22;3369;49.906;8.598;2022-10-16T00:47:50;15.30;99.90
6666;DHT22;3369;49.906;8.598;2022-10-16T00:50:32;15.20;99.90
6666;DHT22;3369;49.906;8.598;2022-10-16T00:52:58;15.30;99.90
6666;DHT22;3369;49.906;8.598;2022-10-16T00:55:26;15.30;99.90
6666;DHT22;3369;49.906;8.598;2022-10-16T00:57:51;15.30;99.90
6666;DHT22;3369;49.906;8.598;2022-10-16T01:00:19;15.20;99.90
6666;DHT22;3369;49.906;8.598;2022-10-16T01:02:51;15.20;99.90
6666;DHT22;3369;49.906;8.598;2022-10-16T01:05:16;15.20;99.90
6666;DHT22;3369;49.906;8.598;2022-10-16T01:12:59;15.10;99.90
6666;DHT22;3369;49.906;8.598;2022-10-16T01:15:27;15.10;99.90
6666;DHT22;3369;49.906;8.598;2022-10-16T01:20:26;15.00;99.90
6666;DHT22;3369;49.906;8.598;2022-10-16T01:28:13;15.00;99.90
6666;DHT22;3369;49.906;8.598;2022-10-16T01:30:42;15.00;99.90
6666;DHT22;3369;49.906;8.598;2022-10-16T01:33:10;15.00;99.90
6666;DHT22;3369;49.906;8.598;2022-10-16T01:35:41;14.90;99.90
6666;DHT22;3369;49.906;8.598;2022-10-16T01:40:36;14.90;99.90
6666;DHT22;3369;49.906;8.598;2022-10-16T01:43:12;15.00;99.90
6666;DHT22;3369;49.906;8.598;2022-10-16T01:45:39;14.90;99.90
6666;DHT22;3369;49.906;8.598;2022-10-16T01:48:06;14.90;99.90
6666;DHT22;3369;49.906;8.598;2022-10-16T01:50:35;14.90;99.90
6666;DHT22;3369;49.906;8.598;2022-10-16T01:53:02;14.90;99.90
6666;DHT22;3369;49.906;8.598;2022-10-16T01:55:29;14.90;99.90
6666;DHT22;3369;49.906;8.598;2022-10-16T01:57:57;14.90;99.90
6666;DHT22;3369;49.906;8.598;2022-10-16T02:00:23;14.90;99.90
6666;DHT22;3369;49.906;8.598;2022-10-16T02:02:49;14.90;99.90
6666;DHT22;3369;49.906;8.598;2022-10-16T02:05:19;14.90;99.90
6666;DHT22;3369;49.906;8.598;2022-10-16T02:07:47;14.90;99.90
6666;DHT22;3369;49.906;8.598;2022-10-16T02:10:13;15.00;99.90
6666;DHT22;3369;49.906;8.598;2022-10-16T02:12:40;15.00;99.90
6666;DHT22;3369;49.906;8.598;2022-10-16T02:15:07;15.00;99.90
6666;DHT22;3369;49.906;8.598;2022-10-16T02:38:10;15.00;99.90
6666;DHT22;3369;49.906;8.598;2022-10-16T02:40:36;15.00;99.90
6666;DHT22;3369;49.906;8.598;2022-10-16T02:43:03;15.10;99.90
6666;DHT22;3369;49.906;8.598;2022-10-16T02:45:28;15.10;99.90
6666;DHT22;3369;49.906;8.598;2022-10-16T02:47:54;15.10;99.90
6666;DHT22;3369;49.906;8.598;2022-10-16T02:50:20;15.10;99.90
6666;DHT22;3369;49.906;8.598;2022-10-16T02:52:45;15.10;99.90
6666;DHT22;3369;49.906;8.598;2022-10-16T02:55:11;15.10;99.90
6666;DHT22;3369;49.906;8.598;2022-10-16T02:57:36;15.10;99.90
6666;DHT22;3369;49.906;8.598;2022-10-16T03:00:03;15.20;99.90
6666;DHT22;3369;49.906;8.598;2022-10-16T03:02:29;15.20;99.90
6666;DHT22;3369;49.906;8.598;2022-10-16T03:04:54;15.20;99.90
6666;DHT22;3369;49.906;8.598;2022-10-16T03:07:20;15.20;99.90
6666;DHT22;3369;49.906;8.598;2022-10-16T03:09:46;15.30;99.90
6666;DHT22;3369;49.906;8.598;2022-10-16T03:12:11;15.30;99.90
6666;DHT22;3369;49.906;8.598;2022-10-16T03:14:37;15.20;99.90
6666;DHT22;3369;49.906;8.598;2022-10-16T03:17:03;15.30;99.90
6666;DHT22;3369;49.906;8.598;2022-10-16T03:19:28;15.30;99.90
6666;DHT22;3369;49.906;8.598;2022-10-16T03:21:54;15.30;99.90
6666;DHT22;3369;49.906;8.598;2022-10-16T03:24:19;15.30;99.90
6666;DHT22;3369;49.906;8.598;2022-10-16T03:26:45;15.30;99.90
6666;DHT22;3369;49.906;8.598;2022-10-16T03:29:10;15.30;99.90
6666;DHT22;3369;49.906;8.598;2022-10-16T03:31:36;15.30;99.90
6666;DHT22;3369;49.906;8.598;2022-10-16T03:34:01;15.30;99.90
6666;DHT22;3369;49.906;8.598;2022-10-16T03:36:27;15.30;99.90
6666;DHT22;3369;49.906;8.598;2022-10-16T03:38:52;15.30;99.90
6666;DHT22;3369;49.906;8.598;2022-10-16T03:41:18;15.30;99.90
6666;DHT22;3369;49.906;8.598;2022-10-16T03:43:43;15.30;99.90
6666;DHT22;3369;49.906;8.598;2022-10-16T03:46:09;15.30;99.90
6666;DHT22;3369;49.906;8.598;2022-10-16T03:48:34;15.30;99.90
6666;DHT22;3369;49.906;8.598;2022-10-16T03:51:00;15.30;99.90
6666;DHT22;3369;49.906;8.598;2022-10-16T03:53:25;15.30;99.90
6666;DHT22;3369;49.906;8.598;2022-10-16T03:55:51;15.30;99.90
6666;DHT22;3369;49.906;8.598;2022-10-16T03:58:17;15.30;99.90
6666;DHT22;3369;49.906;8.598;2022-10-16T04:00:43;15.30;99.90
6666;DHT22;3369;49.906;8.598;2022-10-16T04:03:09;15.30;99.90
6666;DHT22;3369;49.906;8.598;2022-10-16T04:05:34;15.30;99.90
6666;DHT22;3369;49.906;8.598;2022-10-16T04:08:00;15.30;99.90
6666;DHT22;3369;49.906;8.598;2022-10-16T04:10:26;15.30;99.90
6666;DHT22;3369;49.906;8.598;2022-10-16T04:12:51;15.40;99.90
6666;DHT22;3369;49.906;8.598;2022-10-16T04:15:19;15.40;99.90
6666;DHT22;3369;49.906;8.598;2022-10-16T04:17:45;15.40;99.90
6666;DHT22;3369;49.906;8.598;2022-10-16T04:20:11;15.40;99.90
6666;DHT22;3369;49.906;8.598;2022-10-16T04:22:36;15.40;99.90
6666;DHT22;3369;49.906;8.598;2022-10-16T04:25:02;15.40;99.90
6666;DHT22;3369;49.906;8.598;2022-10-16T04:27:27;15.40;99.90
6666;DHT22;3369;49.906;8.598;2022-10-16T04:29:53;15.40;99.90
6666;DHT22;3369;49.906;8.598;2022-10-16T04:32:19;15.40;99.90
6666;DHT22;3369;49.906;8.598;2022-10-16T04:34:44;15.40;99.90
6666;DHT22;3369;49.906;8.598;2022-10-16T04:37:10;15.40;99.90
6666;DHT22;3369;49.906;8.598;2022-10-16T04:39:35;15.40;99.90
6666;DHT22;3369;49.906;8.598;2022-10-16T04:42:01;15.40;99.90
6666;DHT22;3369;49.906;8.598;2022-10-16T04:44:27;15.40;99.90
6666;DHT22;3369;49.906;8.598;2022-10-16T04:46:53;15.40;99.90
6666;DHT22;3369;49.906;8.598;2022-10-16T04:49:18;15.40;99.90
6666;DHT22;3369;49.906;8.598;2022-10-16T04:51:44;15.40;99.90
6666;DHT22;3369;49.906;8.598;2022-10-16T04:54:10;15.40;99.90
6666;DHT22;3369;49.906;8.598;2022-10-16T04:56:35;15.40;99.90
6666;DHT22;3369;49.906;8.598;2022-10-16T04:59:08;15.40;99.90
6666;DHT22;3369;49.906;8.598;2022-10-16T05:01:34;15.40;99.90
6666;DHT22;3369;49.906;8.598;2022-10-16T05:04:00;15.30;99.90
6666;DHT22;3369;49.906;8.598;2022-10-16T05:06:25;15.30;99.90
6666;DHT22;3369;49.906;8.598;2022-10-16T05:08:51;15.30;99.90
6666;DHT22;3369;49.906;8.598;2022-10-16T05:11:16;15.30;99.90
6666;DHT22;3369;49.906;8.598;2022-10-16T05:13:42;15.30;99.90
6666;DHT22;3369;49.906;8.598;2022-10-16T05:16:07;15.30;99.90
6666;DHT22;3369;49.906;8.598;2022-10-16T05:18:33;15.30;99.90
6666;DHT22;3369;49.906;8.598;2022-10-16T05:20:58;15.20;99.90
6666;DHT22;3369;49.906;8.598;2022-10-16T05:23:24;15.30;99.90
6666;DHT22;3369;49.906;8.598;2022-10-16T05:25:53;15.30;99.90
6666;DHT22;3369;49.906;8.598;2022-10-16T05:28:19;15.30;99.90
6666;DHT22;3369;49.906;8.598;2022-10-16T05:30:45;15.30;99.90
6666;DHT22;3369;49.906;8.598;2022-10-16T05:33:10;15.30;99.90
6666;DHT22;3369;49.906;8.598;2022-10-16T05:35:36;15.30;99.90
6666;DHT22;3369;49.906;8.598;2022-10-16T05:38:02;15.30;99.90
6666;DHT22;3369;49.906;8.598;2022-10-16T05:40:27;15.30;99.90
6666;DHT22;3369;49.906;8.598;2022-10-16T05:42:56;15.40;99.90
6666;DHT22;3369;49.906;8.598;2022-10-16T05:45:21;15.40;99.90
6666;DHT22;3369;49.906;8.598;2022-10-16T05:47:47;15.30;99.90
6666;DHT22;3369;49.906;8.598;2022-10-16T05:50:13;15.30;99.90
6666;DHT22;3369;49.906;8.598;2022-10-16T05:52:38;15.30;99.90
6666;DHT22;3369;49.906;8.598;2022-10-16T05:55:04;15.30;99.90
6666;DHT22;3369;49.906;8.598;2022-10-16T05:57:29;15.30;99.90
6666;DHT22;3369;49.906;8.598;2022-10-16T05:59:55;15.30;99.90
6666;DHT22;3369;49.906;8.598;2022-10-16T06:02:21;15.30;99.90
6666;DHT22;3369;49.906;8.598;2022-10-16T06:04:46;15.30;99.90
6666;DHT22;3369;49.906;8.598;2022-10-16T06:07:12;15.20;99.90
6666;DHT22;3369;49.906;8.598;2022-10-16T06:09:37;15.30;99.90
6666;DHT22;3369;49.906;8.598;2022-10-16T06:12:03;15.30;99.90
6666;DHT22;3369;49.906;8.598;2022-10-16T06:14:28;15.20;99.90
6666;DHT22;3369;49.906;8.598;2022-10-16T06:16:54;15.30;99.90
6666;DHT22;3369;49.906;8.598;2022-10-16T06:19:19;15.20;99.90
6666;DHT22;3369;49.906;8.598;2022-10-16T06:21:45;15.30;99.90
6666;DHT22;3369;49.906;8.598;2022-10-16T06:24:11;15.20;99.90
6666;DHT22;3369;49.906;8.598;2022-10-16T06:26:37;15.20;99.90
6666;DHT22;3369;49.906;8.598;2022-10-16T06:29:02;15.20;99.90
6666;DHT22;3369;49.906;8.598;2022-10-16T06:31:28;15.30;99.90
6666;DHT22;3369;49.906;8.598;2022-10-16T06:33:56;15.30;99.90
6666;DHT22;3369;49.906;8.598;2022-10-16T06:36:22;15.30;99.90
6666;DHT22;3369;49.906;8.598;2022-10-16T06:38:48;15.30;99.90
6666;DHT22;3369;49.906;8.598;2022-10-16T06:41:14;15.30;99.90
6666;DHT22;3369;49.906;8.598;2022-10-16T06:43:40;15.30;99.90
6666;DHT22;3369;49.906;8.598;2022-10-16T06:46:06;15.30;99.90
6666;DHT22;3369;49.906;8.598;2022-10-16T06:48:35;15.40;99.90
6666;DHT22;3369;49.906;8.598;2022-10-16T06:51:02;15.30;99.90
6666;DHT22;3369;49.906;8.598;2022-10-16T06:53:29;15.30;99.90
6666;DHT22;3369;49.906;8.598;2022-10-16T06:55:55;15.40;99.90
6666;DHT22;3369;49.906;8.598;2022-10-16T06:58:21;15.30;99.90
6666;DHT22;3369;49.906;8.598;2022-10-16T07:00:46;15.40;99.90
6666;DHT22;3369;49.906;8.598;2022-10-16T07:03:12;15.30;99.90
6666;DHT22;3369;49.906;8.598;2022-10-16T07:05:38;15.40;99.90
6666;DHT22;3369;49.906;8.598;2022-10-16T07:08:04;15.30;99.90
6666;DHT22;3369;49.906;8.598;2022-10-16T07:10:31;15.40;99.90
6666;DHT22;3369;49.906;8.598;2022-10-16T07:12:56;15.40;99.90
6666;DHT22;3369;49.906;8.598;2022-10-16T07:15:22;15.40;99.90
6666;DHT22;3369;49.906;8.598;2022-10-16T07:17:48;15.40;99.90
6666;DHT22;3369;49.906;8.598;2022-10-16T07:20:13;15.40;99.90
6666;DHT22;3369;49.906;8.598;2022-10-16T07:22:39;15.40;99.90
6666;DHT22;3369;49.906;8.598;2022-10-16T07:25:04;15.40;99.90
6666;DHT22;3369;49.906;8.598;2022-10-16T07:27:30;15.40;99.90
6666;DHT22;3369;49.906;8.598;2022-10-16T07:29:56;15.50;99.90
6666;DHT22;3369;49.906;8.598;2022-10-16T07:32:21;15.50;99.90
6666;DHT22;3369;49.906;8.598;2022-10-16T07:34:47;15.50;99.90
6666;DHT22;3369;49.906;8.598;2022-10-16T07:37:12;15.50;99.90
6666;DHT22;3369;49.906;8.598;2022-10-16T07:39:38;15.50;99.90
6666;DHT22;3369;49.906;8.598;2022-10-16T07:42:03;15.50;99.90
6666;DHT22;3369;49.906;8.598;2022-10-16T07:44:29;15.60;99.90
6666;DHT22;3369;49.906;8.598;2022-10-16T07:46:54;15.60;99.90
6666;DHT22;3369;49.906;8.598;2022-10-16T07:49:20;15.60;99.90
6666;DHT22;3369;49.906;8.598;2022-10-16T07:51:46;15.70;99.90
6666;DHT22;3369;49.906;8.598;2022-10-16T07:54:11;15.70;99.90
6666;DHT22;3369;49.906;8.598;2022-10-16T07:56:37;15.70;99.90
6666;DHT22;3369;49.906;8.598;2022-10-16T07:59:03;15.70;99.90
6666;DHT22;3369;49.906;8.598;2022-10-16T08:01:28;15.80;99.90
6666;DHT22;3369;49.906;8.598;2022-10-16T08:03:54;15.80;99.90
6666;DHT22;3369;49.906;8.598;2022-10-16T08:06:20;15.80;99.90
6666;DHT22;3369;49.906;8.598;2022-10-16T08:08:46;15.90;99.90
6666;DHT22;3369;49.906;8.598;2022-10-16T08:11:12;15.90;99.90
6666;DHT22;3369;49.906;8.598;2022-10-16T08:13:39;15.90;99.90
6666;DHT22;3369;49.906;8.598;2022-10-16T08:16:05;15.90;99.90
6666;DHT22;3369;49.906;8.598;2022-10-16T08:18:34;15.90;99.90
6666;DHT22;3369;49.906;8.598;2022-10-16T08:21:00;16.00;99.90
6666;DHT22;3369;49.906;8.598;2022-10-16T08:23:26;15.90;99.90
6666;DHT22;3369;49.906;8.598;2022-10-16T08:25:55;15.90;99.90
6666;DHT22;3369;49.906;8.598;2022-10-16T08:28:22;15.90;99.90
6666;DHT22;3369;49.906;8.598;2022-10-16T08:30:47;15.90;99.90
6666;DHT22;3369;49.906;8.598;2022-10-16T08:33:13;15.90;99.90
6666;DHT22;3369;49.906;8.598;2022-10-16T08:35:39;15.90;99.90
6666;DHT22;3369;49.906;8.598;2022-10-16T08:38:04;15.90;99.90
6666;DHT22;3369;49.906;8.598;2022-10-16T08:40:31;15.90;99.90
6666;DHT22;3369;49.906;8.598;2022-10-16T08:45:47;15.90;99.90
6666;DHT22;3369;49.906;8.598;2022-10-16T08:48:18;15.80;99.90
6666;DHT22;3369;49.906;8.598;2022-10-16T08:50:45;15.80;99.90
6666;DHT22;3369;49.906;8.598;2022-10-16T08:53:17;15.80;99.90
6666;DHT22;3369;49.906;8.598;2022-10-16T08:55:51;15.80;99.90
6666;DHT22;3369;49.906;8.598;2022-10-16T08:58:23;15.80;99.90
6666;DHT22;3369;49.906;8.598;2022-10-16T09:01:01;15.80;99.90
6666;DHT22;3369;49.906;8.598;2022-10-16T09:16:46;15.80;99.90
6666;DHT22;3369;49.906;8.598;2022-10-16T09:21:43;15.90;99.90
6666;DHT22;3369;49.906;8.598;2022-10-16T09:24:11;15.90;99.90
6666;DHT22;3369;49.906;8.598;2022-10-16T09:26:38;15.90;99.90
6666;DHT22;3369;49.906;8.598;2022-10-16T09:29:04;15.90;99.90
6666;DHT22;3369;49.906;8.598;2022-10-16T09:31:29;15.90;99.90
6666;DHT22;3369;49.906;8.598;2022-10-16T09:33:57;16.00;99.90
6666;DHT22;3369;49.906;8.598;2022-10-16T09:36:23;16.00;99.90
6666;DHT22;3369;49.906;8.598;2022-10-16T09:39:00;16.00;99.90
6666;DHT22;3369;49.906;8.598;2022-10-16T09:41:26;16.10;99.90
6666;DHT22;3369;49.906;8.598;2022-10-16T09:43:59;16.10;99.90
6666;DHT22;3369;49.906;8.598;2022-10-16T09:46:28;16.20;99.90
6666;DHT22;3369;49.906;8.598;2022-10-16T09:48:55;16.30;99.90
6666;DHT22;3369;49.906;8.598;2022-10-16T09:51:23;16.40;99.90
6666;DHT22;3369;49.906;8.598;2022-10-16T09:53:53;16.50;99.90
6666;DHT22;3369;49.906;8.598;2022-10-16T09:56:23;16.60;99.90
6666;DHT22;3369;49.906;8.598;2022-10-16T09:58:53;16.70;99.90
6666;DHT22;3369;49.906;8.598;2022-10-16T10:01:19;16.80;99.90
6666;DHT22;3369;49.906;8.598;2022-10-16T10:03:45;16.80;99.90
6666;DHT22;3369;49.906;8.598;2022-10-16T10:06:17;16.90;99.90
6666;DHT22;3369;49.906;8.598;2022-10-16T10:08:56;17.00;99.90
6666;DHT22;3369;49.906;8.598;2022-10-16T10:14:12;17.20;99.90
6666;DHT22;3369;49.906;8.598;2022-10-16T10:16:40;17.40;99.90
6666;DHT22;3369;49.906;8.598;2022-10-16T10:19:09;17.40;99.90
6666;DHT22;3369;49.906;8.598;2022-10-16T10:21:38;17.60;99.90
6666;DHT22;3369;49.906;8.598;2022-10-16T10:24:04;17.70;99.90
6666;DHT22;3369;49.906;8.598;2022-10-16T10:26:30;17.80;99.90
6666;DHT22;3369;49.906;8.598;2022-10-16T10:31:47;17.90;99.90
6666;DHT22;3369;49.906;8.598;2022-10-16T10:36:43;18.10;99.90
6666;DHT22;3369;49.906;8.598;2022-10-16T10:39:23;18.20;99.90
6666;DHT22;3369;49.906;8.598;2022-10-16T10:44:37;18.20;99.90
6666;DHT22;3369;49.906;8.598;2022-10-16T10:47:17;18.20;99.90
6666;DHT22;3369;49.906;8.598;2022-10-16T11:00:57;18.70;99.90
6666;DHT22;3369;49.906;8.598;2022-10-16T11:06:59;19.00;99.90
6666;DHT22;3369;49.906;8.598;2022-10-16T11:09:41;19.20;99.90
6666;DHT22;3369;49.906;8.598;2022-10-16T11:12:25;19.30;99.90
6666;DHT22;3369;49.906;8.598;2022-10-16T11:15:02;19.40;99.90
6666;DHT22;3369;49.906;8.598;2022-10-16T11:17:42;19.50;99.90
6666;DHT22;3369;49.906;8.598;2022-10-16T11:20:30;19.60;99.90
6666;DHT22;3369;49.906;8.598;2022-10-16T11:26:05;19.70;99.90
6666;DHT22;3369;49.906;8.598;2022-10-16T11:28:38;19.60;99.90
6666;DHT22;3369;49.906;8.598;2022-10-16T11:33:48;19.70;99.90
6666;DHT22;3369;49.906;8.598;2022-10-16T11:36:31;19.70;99.90
6666;DHT22;3369;49.906;8.598;2022-10-16T11:46:34;19.50;99.90
6666;DHT22;3369;49.906;8.598;2022-10-16T11:49:10;19.60;99.90
6666;DHT22;3369;49.906;8.598;2022-10-16T11:51:40;19.70;99.90
6666;DHT22;3369;49.906;8.598;2022-10-16T11:54:24;19.70;99.90
6666;DHT22;3369;49.906;8.598;2022-10-16T11:56:58;19.80;99.90
6666;DHT22;3369;49.906;8.598;2022-10-16T11:59:40;19.90;99.90
6666;DHT22;3369;49.906;8.598;2022-10-16T12:07:39;19.90;99.90
6666;DHT22;3369;49.906;8.598;2022-10-16T12:10:21;20.00;99.90
6666;DHT22;3369;49.906;8.598;2022-10-16T12:12:47;20.10;99.90
6666;DHT22;3369;49.906;8.598;2022-10-16T12:15:21;20.10;99.90
6666;DHT22;3369;49.906;8.598;2022-10-16T12:17:47;20.20;99.90
6666;DHT22;3369;49.906;8.598;2022-10-16T12:22:55;20.20;99.90
6666;DHT22;3369;49.906;8.598;2022-10-16T12:28:19;20.40;99.90
6666;DHT22;3369;49.906;8.598;2022-10-16T12:30:52;20.50;99.90
6666;DHT22;3369;49.906;8.598;2022-10-16T12:33:34;20.60;99.90
6666;DHT22;3369;49.906;8.598;2022-10-16T12:36:03;20.70;99.90
6666;DHT22;3369;49.906;8.598;2022-10-16T12:38:36;20.70;99.90
6666;DHT22;3369;49.906;8.598;2022-10-16T12:41:05;20.70;99.90
6666;DHT22;3369;49.906;8.598;2022-10-16T12:46:26;20.70;99.90
6666;DHT22;3369;49.906;8.598;2022-10-16T12:51:54;20.50;99.90
6666;DHT22;3369;49.906;8.598;2022-10-16T12:54:29;20.40;99.90
6666;DHT22;3369;49.906;8.598;2022-10-16T13:08:35;20.10;99.90
6666;DHT22;3369;49.906;8.598;2022-10-16T13:11:22;20.10;99.90
6666;DHT22;3369;49.906;8.598;2022-10-16T13:19:47;20.00;99.90
6666;DHT22;3369;49.906;8.598;2022-10-16T13:28:03;19.90;99.90
6666;DHT22;3369;49.906;8.598;2022-10-16T13:30:31;19.90;99.90
6666;DHT22;3369;49.906;8.598;2022-10-16T13:33:04;19.90;99.90
6666;DHT22;3369;49.906;8.598;2022-10-16T13:35:34;19.80;99.90
6666;DHT22;3369;49.906;8.598;2022-10-16T13:38:13;19.80;99.90
6666;DHT22;3369;49.906;8.598;2022-10-16T13:41:00;19.80;99.90
6666;DHT22;3369;49.906;8.598;2022-10-16T13:43:36;19.80;99.90
6666;DHT22;3369;49.906;8.598;2022-10-16T13:46:25;19.80;99.90
6666;DHT22;3369;49.906;8.598;2022-10-16T13:49:16;19.80;99.90
6666;DHT22;3369;49.906;8.598;2022-10-16T13:51:57;19.80;99.90
6666;DHT22;3369;49.906;8.598;2022-10-16T13:54:23;19.70;99.90
6666;DHT22;3369;49.906;8.598;2022-10-16T13:56:49;19.70;99.90
6666;DHT22;3369;49.906;8.598;2022-10-16T13:59:34;19.60;99.90
6666;DHT22;3369;49.906;8.598;2022-10-16T14:02:04;19.60;99.90
6666;DHT22;3369;49.906;8.598;2022-10-16T14:04:32;19.60;99.90
6666;DHT22;3369;49.906;8.598;2022-10-16T14:06:58;19.60;99.90
6666;DHT22;3369;49.906;8.598;2022-10-16T14:09:26;19.60;99.90
6666;DHT22;3369;49.906;8.598;2022-10-16T14:12:11;19.60;99.90
6666;DHT22;3369;49.906;8.598;2022-10-16T14:14:49;19.60;99.90
6666;DHT22;3369;49.906;8.598;2022-10-16T14:17:24;19.50;99.90
6666;DHT22;3369;49.906;8.598;2022-10-16T14:19:54;19.50;99.90
6666;DHT22;3369;49.906;8.598;2022-10-16T14:22:33;19.50;99.90
6666;DHT22;3369;49.906;8.598;2022-10-16T14:24:59;19.50;99.90
6666;DHT22;3369;49.906;8.598;2022-10-16T14:27:32;19.50;99.90
6666;DHT22;3369;49.906;8.598;2022-10-16T14:30:20;19.50;99.90
6666;DHT22;3369;49.906;8.598;2022-10-16T14:32:57;19.50;99.90
6666;DHT22;3369;49.906;8.598;2022-10-16T14:53:40;19.40;99.90
6666;DHT22;3369;49.906;8.598;2022-10-16T14:56:24;19.30;99.90
6666;DHT22;3369;49.906;8.598;2022-10-16T14:58:51;19.30;99.90
6666;DHT22;3369;49.906;8.598;2022-10-16T15:01:17;19.30;99.90
6666;DHT22;3369;49.906;8.598;2022-10-16T15:03:43;19.20;99.90
6666;DHT22;3369;49.906;8.598;2022-10-16T15:06:13;19.20;99.90
6666;DHT22;3369;49.906;8.598;2022-10-16T15:08:39;19.20;99.90
6666;DHT22;3369;49.906;8.598;2022-10-16T15:11:04;19.20;99.90
6666;DHT22;3369;49.906;8.598;2022-10-16T15:13:30;19.20;99.90
6666;DHT22;3369;49.906;8.598;2022-10-16T15:15:56;19.30;99.90
6666;DHT22;3369;49.906;8.598;2022-10-16T15:18:21;19.30;99.90
6666;DHT22;3369;49.906;8.598;2022-10-16T15:20:50;19.30;99.90
6666;DHT22;3369;49.906;8.598;2022-10-16T15:23:17;19.30;99.90
6666;DHT22;3369;49.906;8.598;2022-10-16T15:28:09;19.30;99.90
6666;DHT22;3369;49.906;8.598;2022-10-16T15:30:35;19.30;99.90
6666;DHT22;3369;49.906;8.598;2022-10-16T15:33:00;19.40;99.90
6666;DHT22;3369;49.906;8.598;2022-10-16T15:35:26;19.40;99.90
6666;DHT22;3369;49.906;8.598;2022-10-16T15:37:52;19.30;99.90
6666;DHT22;3369;49.906;8.598;2022-10-16T15:40:18;19.30;99.90
6666;DHT22;3369;49.906;8.598;2022-10-16T15:42:44;19.30;99.90
6666;DHT22;3369;49.906;8.598;2022-10-16T15:45:10;19.30;99.90
6666;DHT22;3369;49.906;8.598;2022-10-16T15:47:36;19.30;99.90
6666;DHT22;3369;49.906;8.598;2022-10-16T15:50:02;19.30;99.90
6666;DHT22;3369;49.906;8.598;2022-10-16T15:52:27;19.30;99.90
6666;DHT22;3369;49.906;8.598;2022-10-16T15:54:54;19.20;99.90
6666;DHT22;3369;49.906;8.598;2022-10-16T15:57:19;19.20;99.90
6666;DHT22;3369;49.906;8.598;2022-10-16T15:59:45;19.20;99.90
6666;DHT22;3369;49.906;8.598;2022-10-16T16:02:10;19.10;99.90
6666;DHT22;3369;49.906;8.598;2022-10-16T16:04:36;19.10;99.90
6666;DHT22;3369;49.906;8.598;2022-10-16T16:07:02;19.10;99.90
6666;DHT22;3369;49.906;8.598;2022-10-16T16:09:30;19.00;99.90
6666;DHT22;3369;49.906;8.598;2022-10-16T16:11:56;19.00;99.90
6666;DHT22;3369;49.906;8.598;2022-10-16T16:14:24;19.00;99.90
6666;DHT22;3369;49.906;8.598;2022-10-16T16:16:51;18.90;99.90
6666;DHT22;3369;49.906;8.598;2022-10-16T16:19:16;18.90;99.90
6666;DHT22;3369;49.906;8.598;2022-10-16T16:21:46;18.90;99.90
6666;DHT22;3369;49.906;8.598;2022-10-16T16:24:12;18.80;99.90
6666;DHT22;3369;49.906;8.598;2022-10-16T16:26:37;18.80;99.90
6666;DHT22;3369;49.906;8.598;2022-10-16T16:29:05;18.80;99.90
6666;DHT22;3369;49.906;8.598;2022-10-16T16:31:31;18.70;99.90
6666;DHT22;3369;49.906;8.598;2022-10-16T16:33:57;18.70;99.90
6666;DHT22;3369;49.906;8.598;2022-10-16T16:36:23;18.70;99.90
6666;DHT22;3369;49.906;8.598;2022-10-16T16:38:49;18.70;99.90
6666;DHT22;3369;49.906;8.598;2022-10-16T16:41:19;18.70;99.90
6666;DHT22;3369;49.906;8.598;2022-10-16T16:43:45;18.60;99.90
6666;DHT22;3369;49.906;8.598;2022-10-16T16:46:11;18.60;99.90
6666;DHT22;3369;49.906;8.598;2022-10-16T16:48:37;18.50;99.90
6666;DHT22;3369;49.906;8.598;2022-10-16T16:51:03;18.50;99.90
6666;DHT22;3369;49.906;8.598;2022-10-16T16:53:29;18.60;99.90
6666;DHT22;3369;49.906;8.598;2022-10-16T16:55:55;18.60;99.90
6666;DHT22;3369;49.906;8.598;2022-10-16T16:58:20;18.50;99.90
6666;DHT22;3369;49.906;8.598;2022-10-16T17:00:46;18.50;99.90
6666;DHT22;3369;49.906;8.598;2022-10-16T17:03:12;18.50;99.90
6666;DHT22;3369;49.906;8.598;2022-10-16T17:05:37;18.50;99.90
6666;DHT22;3369;49.906;8.598;2022-10-16T17:08:06;18.40;99.90
6666;DHT22;3369;49.906;8.598;2022-10-16T17:10:31;18.40;99.90
6666;DHT22;3369;49.906;8.598;2022-10-16T17:12:57;18.30;99.90
6666;DHT22;3369;49.906;8.598;2022-10-16T17:15:22;18.30;99.90
6666;DHT22;3369;49.906;8.598;2022-10-16T17:17:48;18.30;99.90
6666;DHT22;3369;49.906;8.598;2022-10-16T17:20:14;18.20;99.90
6666;DHT22;3369;49.906;8.598;2022-10-16T17:22:39;18.20;99.90
6666;DHT22;3369;49.906;8.598;2022-10-16T17:25:06;18.20;99.90
6666;DHT22;3369;49.906;8.598;2022-10-16T17:27:33;18.10;99.90
6666;DHT22;3369;49.906;8.598;2022-10-16T17:29:58;18.10;99.90
6666;DHT22;3369;49.906;8.598;2022-10-16T17:32:24;18.00;99.90
6666;DHT22;3369;49.906;8.598;2022-10-16T17:34:50;18.00;99.90
6666;DHT22;3369;49.906;8.598;2022-10-16T17:37:15;18.00;99.90
6666;DHT22;3369;49.906;8.598;2022-10-16T17:39:41;17.90;99.90
6666;DHT22;3369;49.906;8.598;2022-10-16T17:42:07;17.90;99.90
6666;DHT22;3369;49.906;8.598;2022-10-16T17:44:32;17.80;99.90
6666;DHT22;3369;49.906;8.598;2022-10-16T17:46:58;17.80;99.90
6666;DHT22;3369;49.906;8.598;2022-10-16T17:49:24;17.80;99.90
6666;DHT22;3369;49.906;8.598;2022-10-16T17:51:50;17.70;99.90
6666;DHT22;3369;49.906;8.598;2022-10-16T17:54:16;17.70;99.90
6666;DHT22;3369;49.906;8.598;2022-10-16T17:56:42;17.70;99.90
6666;DHT22;3369;49.906;8.598;2022-10-16T17:59:08;17.60;99.90
6666;DHT22;3369;49.906;8.598;2022-10-16T18:01:34;17.60;99.90
6666;DHT22;3369;49.906;8.598;2022-10-16T18:04:02;17.50;99.90
6666;DHT22;3369;49.906;8.598;2022-10-16T18:06:29;17.50;99.90
6666;DHT22;3369;49.906;8.598;2022-10-16T18:08:56;17.50;99.90
6666;DHT22;3369;49.906;8.598;2022-10-16T18:11:22;17.40;99.90
6666;DHT22;3369;49.906;8.598;2022-10-16T18:13:50;17.40;99.90
6666;DHT22;3369;49.906;8.598;2022-10-16T18:16:16;17.40;99.90
6666;DHT22;3369;49.906;8.598;2022-10-16T18:18:42;17.30;99.90
6666;DHT22;3369;49.906;8.598;2022-10-16T18:21:10;17.30;99.90
6666;DHT22;3369;49.906;8.598;2022-10-16T18:23:36;17.20;99.90
6666;DHT22;3369;49.906;8.598;2022-10-16T18:26:02;17.20;99.90
6666;DHT22;3369;49.906;8.598;2022-10-16T18:28:28;17.10;99.90
6666;DHT22;3369;49.906;8.598;2022-10-16T18:30:54;17.10;99.90
6666;DHT22;3369;49.906;8.598;2022-10-16T18:33:20;17.10;99.90
6666;DHT22;3369;49.906;8.598;2022-10-16T18:35:46;17.10;99.90
6666;DHT22;3369;49.906;8.598;2022-10-16T18:38:11;17.00;99.90
6666;DHT22;3369;49.906;8.598;2022-10-16T18:40:37;17.00;99.90